Time;durP1;ratioP1;P1;durP2;ratioP2;P2;SDS_P1;SDS_P2;PMS_P1;PMS_P2;Temp;Humidity;BMP_temperature;BMP_pressure;BME280_temperature;BME280_humidity;BME280_pressure;Samples;Min_cycle;Max_cycle;Signal;HPM_P1;HPM_P2
2022/12/30 00:02:01;;;;;;;12.23;8.93;;;;;;;6.77;73.87;100087.11;3336273;83;20984;-78
2022/12/30 00:06:52;;;;;;;15.55;10.43;;;;;;;6.77;73.87;100087.11;3315184;83;21138;-78
2022/12/30 00:11:43;;;;;;;11.87;8.47;;;;;;;6.65;73.96;100084.25;3356645;83;21022;-78
2022/12/30 00:37:28;;;;;;;11.43;8.35;;;;;;;6.24;74.78;100089.31;3368251;83;21037;-78
2022/12/30 00:47:28;;;;;;;10.55;8.05;;;;;;;6.04;74.86;100097.42;3361507;83;20984;-78
2022/12/30 00:57:31;;;;;;;10.75;8.00;;;;;;;5.76;75.38;100088.48;3328436;83;21437;-78
2022/12/30 01:02:23;;;;;;;12.63;7.05;;;;;;;5.73;75.52;100097.89;3297158;83;21533;-78
2022/12/30 01:07:14;;;;;;;11.15;7.67;;;;;;;5.65;75.61;100098.13;3344966;82;21426;-78
2022/12/30 01:12:09;;;;;;;10.75;8.00;;;;;;;5.58;75.78;100112.98;3292964;83;20987;-78
2022/12/30 01:17:01;;;;;;;10.88;7.20;;;;;;;5.47;75.96;100105.34;3312047;83;21015;-78
2022/12/30 01:21:51;;;;;;;12.07;8.15;;;;;;;5.34;76.16;100104.98;3369221;83;20944;-78
2022/12/30 01:26:42;;;;;;;11.38;7.00;;;;;;;5.27;76.36;100100.49;3332161;83;21015;-78
2022/12/30 01:31:33;;;;;;;12.45;7.62;;;;;;;5.23;76.60;100121.86;3305420;82;21716;-78
2022/12/30 01:36:24;;;;;;;12.55;7.92;;;;;;;5.24;76.84;100115.89;3297689;83;21071;-78
2022/12/30 01:41:15;;;;;;;11.40;7.55;;;;;;;5.28;76.83;100103.55;3290958;85;21525;-78
2022/12/30 01:46:06;;;;;;;11.05;7.40;;;;;;;5.34;76.86;100098.55;3237228;85;20984;-78
2022/12/30 01:51:06;;;;;;;16.85;8.35;;;;;;;5.31;76.89;100098.88;3194685;85;22100;-77
2022/12/30 01:56:29;;;;;;;11.53;7.67;;;;;;;5.33;77.00;100099.82;3275673;85;20968;-78
2022/12/30 02:01:20;;;;;;;13.83;8.03;;;;;;;5.45;77.13;100109.58;3309286;84;21534;-78
2022/12/30 02:06:16;;;;;;;10.30;6.85;;;;;;;5.51;77.44;100107.20;3205888;85;21106;-78
2022/12/30 02:11:08;;;;;;;13.63;7.90;;;;;;;5.51;77.44;100107.20;3285868;85;20945;-78
2022/12/30 02:16:36;;;;;;;10.88;8.15;;;;;;;5.56;77.29;100133.95;3262389;85;21882;-78
2022/12/30 02:21:36;;;;;;;11.95;8.83;;;;;;;5.63;77.16;100141.03;3250210;85;21463;-78
2022/12/30 02:26:58;;;;;;;11.15;8.30;;;;;;;5.80;77.15;100132.91;3293327;85;21015;-78
2022/12/30 02:32:22;;;;;;;10.93;7.72;;;;;;;5.85;77.02;100115.84;3285313;85;21019;-78
2022/12/30 02:37:38;;;;;;;12.40;7.85;;;;;;;5.85;77.02;100115.84;3281546;85;21095;-78
2022/12/30 02:48:17;;;;;;;8.83;6.75;;;;;;;5.97;76.77;100134.66;3347128;83;20999;-78
2022/12/30 02:53:09;;;;;;;12.07;7.30;;;;;;;6.03;76.60;100136.99;3341450;82;20999;-78
2022/12/30 02:58:00;;;;;;;10.03;7.55;;;;;;;6.09;76.37;100131.97;3322447;83;21101;-78
2022/12/30 03:08:49;;;;;;;11.30;7.95;;;;;;;6.09;76.42;100126.81;3369886;83;21758;-78
2022/12/30 03:14:08;;;;;;;10.53;7.67;;;;;;;5.96;76.35;100132.50;3362411;83;20979;-78
2022/12/30 03:19:07;;;;;;;14.28;8.28;;;;;;;5.91;76.36;100145.66;3358071;83;21422;-78
2022/12/30 03:29:16;;;;;;;13.05;9.30;;;;;;;5.93;76.23;100139.70;3338990;83;21023;-78
2022/12/30 03:34:08;;;;;;;10.55;7.20;;;;;;;5.91;76.18;100127.17;3366134;82;21197;-78
2022/12/30 03:39:13;;;;;;;11.68;8.18;;;;;;;5.95;76.01;100151.35;3353086;83;22276;-78
2022/12/30 03:44:04;;;;;;;10.30;6.95;;;;;;;5.91;76.00;100159.86;3297479;83;21052;-78
2022/12/30 03:48:55;;;;;;;9.63;7.50;;;;;;;5.91;76.00;100159.86;3281248;84;20936;-78
2022/12/30 03:53:47;;;;;;;11.78;8.08;;;;;;;5.91;76.06;100149.53;3257648;85;21027;-78
2022/12/30 03:58:38;;;;;;;12.30;8.60;;;;;;;5.88;75.88;100146.86;3258899;84;21560;-78
2022/12/30 04:03:28;;;;;;;11.50;8.40;;;;;;;5.95;75.97;100161.67;3274265;85;21050;-78
2022/12/30 04:08:21;;;;;;;11.30;8.15;;;;;;;5.97;75.94;100157.45;3219294;85;21666;-78
2022/12/30 04:13:12;;;;;;;9.83;6.92;;;;;;;6.01;76.00;100163.18;3220182;85;21063;-78
2022/12/30 04:18:04;;;;;;;9.83;7.58;;;;;;;6.02;76.06;100173.94;3300141;85;21094;-78
2022/12/30 04:22:57;;;;;;;10.70;7.40;;;;;;;6.04;75.85;100184.31;3248195;85;21272;-78
2022/12/30 04:27:49;;;;;;;10.95;7.45;;;;;;;6.04;75.89;100183.88;3275084;85;21019;-78
2022/12/30 04:32:40;;;;;;;11.68;8.20;;;;;;;6.03;75.89;100189.03;3302825;83;20937;-78
2022/12/30 04:37:31;;;;;;;10.32;6.92;;;;;;;6.04;75.82;100183.88;3300702;84;21273;-78
2022/12/30 04:42:22;;;;;;;9.80;7.53;;;;;;;6.03;75.83;100175.70;3264753;83;20987;-78
2022/12/30 04:47:13;;;;;;;10.03;7.20;;;;;;;5.99;75.96;100169.11;3339149;82;21663;-78
2022/12/30 04:52:04;;;;;;;9.95;7.55;;;;;;;6.02;76.04;100173.94;3345585;83;20971;-78
2022/12/30 04:56:55;;;;;;;8.98;6.97;;;;;;;6.02;76.07;100174.37;3300121;83;22197;-78
2022/12/30 05:01:47;;;;;;;9.85;7.45;;;;;;;6.00;76.22;100173.03;3333434;82;21047;-78
2022/12/30 05:06:38;;;;;;;11.63;7.25;;;;;;;6.02;76.06;100184.69;3345503;83;21007;-78
2022/12/30 05:11:29;;;;;;;9.87;6.93;;;;;;;5.96;76.20;100181.53;3347932;83;21056;-78
2022/12/30 05:16:20;;;;;;;10.48;6.92;;;;;;;5.91;76.48;100188.23;3302301;83;21997;-78
2022/12/30 05:21:11;;;;;;;8.85;7.22;;;;;;;5.87;76.52;100189.00;3321396;83;21281;-78
2022/12/30 05:26:14;;;;;;;10.08;7.28;;;;;;;5.81;76.68;100189.70;3319499;82;21022;-78
2022/12/30 05:31:05;;;;;;;9.80;6.75;;;;;;;5.81;76.49;100192.67;3349248;83;20967;-78
2022/12/30 05:35:56;;;;;;;10.03;7.45;;;;;;;5.78;76.58;100186.13;3315186;83;21021;-78
2022/12/30 05:40:47;;;;;;;10.40;7.25;;;;;;;5.81;76.67;100204.28;3291429;82;22182;-78
2022/12/30 05:45:38;;;;;;;12.45;7.42;;;;;;;5.77;76.71;100224.39;3267511;85;20997;-78
2022/12/30 05:50:29;;;;;;;12.10;8.18;;;;;;;5.78;76.62;100224.83;3236063;85;21006;-78
2022/12/30 05:55:22;;;;;;;12.55;8.08;;;;;;;5.77;76.71;100226.55;3239692;85;20999;-78
2022/12/30 06:00:14;;;;;;;11.03;7.60;;;;;;;5.79;76.62;100215.84;3292100;85;21283;-78
2022/12/30 06:05:06;;;;;;;12.37;7.58;;;;;;;5.77;76.77;100233.42;3287490;85;21027;-78
2022/12/30 06:09:57;;;;;;;11.22;7.60;;;;;;;5.75;76.74;100246.70;3291561;85;21000;-78
2022/12/30 06:14:48;;;;;;;12.33;7.63;;;;;;;5.69;76.87;100236.66;3266807;85;21011;-78
2022/12/30 06:19:39;;;;;;;11.73;8.65;;;;;;;5.73;76.97;100262.98;3261912;85;21338;-78
2022/12/30 06:24:30;;;;;;;10.35;7.80;;;;;;;5.77;76.90;100266.95;3250625;85;21641;-78
2022/12/30 06:29:21;;;;;;;10.98;7.65;;;;;;;5.81;76.71;100258.47;3219948;85;20991;-78
2022/12/30 06:34:12;;;;;;;12.65;8.58;;;;;;;5.86;76.79;100262.05;3283459;85;20980;-78
2022/12/30 06:39:03;;;;;;;13.20;8.68;;;;;;;5.87;76.72;100259.52;3293279;84;21557;-78
2022/12/30 06:43:54;;;;;;;11.25;8.43;;;;;;;5.91;76.84;100264.36;3313697;82;20943;-78
2022/12/30 06:48:45;;;;;;;11.25;8.00;;;;;;;5.91;76.84;100272.09;3326719;83;21446;-78
2022/12/30 06:53:36;;;;;;;15.70;9.78;;;;;;;5.91;76.84;100287.58;3325712;83;20968;-78
2022/12/30 06:58:27;;;;;;;13.30;9.08;;;;;;;5.92;76.82;100282.89;3303859;82;20995;-78
2022/12/30 07:03:19;;;;;;;12.90;9.23;;;;;;;5.94;76.78;100298.00;3294384;83;20979;-78
2022/12/30 07:08:10;;;;;;;11.88;7.72;;;;;;;5.92;76.82;100301.82;3303390;83;21046;-78
2022/12/30 07:13:02;;;;;;;13.32;9.15;;;;;;;5.98;76.77;100319.22;3267964;83;21257;-78
2022/12/30 07:17:53;;;;;;;11.35;8.58;;;;;;;6.06;76.71;100314.27;3235298;85;20984;-78
2022/12/30 07:22:44;;;;;;;13.72;8.53;;;;;;;6.11;76.76;100323.89;3238696;84;21254;-78
2022/12/30 07:27:36;;;;;;;12.43;8.53;;;;;;;6.15;76.67;100330.01;3225861;84;20961;-78
2022/12/30 07:32:27;;;;;;;12.75;9.03;;;;;;;6.21;76.67;100344.83;3232561;85;20961;-78
2022/12/30 07:37:18;;;;;;;11.70;8.20;;;;;;;6.20;76.94;100349.52;3300898;84;21413;-78
2022/12/30 07:42:09;;;;;;;14.13;9.45;;;;;;;6.20;76.94;100349.52;3261604;85;21078;-78
2022/12/30 07:47:00;;;;;;;11.35;9.13;;;;;;;6.29;76.78;100369.14;3283050;85;20951;-78
2022/12/30 07:51:51;;;;;;;8.88;7.85;;;;;;;6.35;76.68;100377.08;3214697;85;20972;-78
2022/12/30 07:56:42;;;;;;;10.72;7.62;;;;;;;6.41;76.81;100384.98;3278494;85;21450;-78
2022/12/30 08:01:33;;;;;;;10.68;8.28;;;;;;;6.41;76.81;100384.98;3284237;85;23376;-78
2022/12/30 08:06:25;;;;;;;10.70;7.90;;;;;;;6.46;76.80;100389.01;3228338;85;20945;-78
2022/12/30 08:11:18;;;;;;;12.85;8.38;;;;;;;6.55;76.89;100384.52;3263132;85;21183;-78
2022/12/30 08:16:14;;;;;;;14.30;9.10;;;;;;;6.67;77.09;100389.61;3228068;85;21062;-77
2022/12/30 08:21:15;;;;;;;10.68;7.45;;;;;;;6.67;77.09;100389.61;3258315;85;21065;-77
2022/12/30 08:26:14;;;;;;;11.45;8.28;;;;;;;6.82;76.84;100392.14;3279899;85;21711;-77
2022/12/30 08:31:16;;;;;;;11.93;7.83;;;;;;;6.91;76.69;100401.43;3281055;85;21206;-78
2022/12/30 08:36:12;;;;;;;9.35;7.53;;;;;;;6.99;76.74;100410.67;3262069;84;21016;-79
2022/12/30 08:41:18;;;;;;;10.98;7.50;;;;;;;7.12;76.75;100423.50;3218238;85;20941;-79
2022/12/30 08:46:10;;;;;;;12.78;9.00;;;;;;;7.17;76.59;100416.34;3289426;85;20926;-78
2022/12/30 08:51:02;;;;;;;10.05;7.45;;;;;;;7.28;76.44;100440.29;3254707;85;21491;-78
2022/12/30 08:56:14;;;;;;;12.03;7.62;;;;;;;7.37;76.36;100455.64;3247434;85;21020;-78
2022/12/30 09:01:16;;;;;;;11.18;7.97;;;;;;;7.34;76.17;100455.98;3289880;85;21206;-77
2022/12/30 09:06:09;;;;;;;12.25;6.40;;;;;;;7.23;76.22;100468.20;3241086;85;21525;-78
2022/12/30 09:11:05;;;;;;;8.38;6.20;;;;;;;7.16;76.27;100461.13;3271434;85;21040;-77
2022/12/30 09:15:57;;;;;;;8.70;6.12;;;;;;;7.19;76.32;100462.51;3209786;85;22058;-78
2022/12/30 09:20:50;;;;;;;11.08;6.87;;;;;;;7.22;76.36;100461.27;3316634;83;21022;-77
2022/12/30 09:25:41;;;;;;;10.50;6.58;;;;;;;7.27;76.40;100449.77;3313385;83;21517;-78
2022/12/30 09:30:32;;;;;;;10.63;6.90;;;;;;;7.39;76.30;100463.45;3320253;83;21037;-78
2022/12/30 09:35:23;;;;;;;8.48;4.70;;;;;;;7.54;76.20;100461.66;3312719;82;21509;-78
2022/12/30 09:40:23;;;;;;;7.80;4.95;;;;;;;7.69;75.98;100457.27;3293671;83;21528;-78
2022/12/30 09:45:56;;;;;;;7.87;4.65;;;;;;;7.81;75.67;100460.16;3155955;87;21063;-77
2022/12/30 09:51:01;;;;;;;6.40;4.08;;;;;;;7.87;75.57;100459.03;3181070;87;20951;-77
2022/12/30 09:56:00;;;;;;;5.75;3.52;;;;;;;7.90;74.65;100462.09;3224849;87;21040;-78
2022/12/30 10:00:53;;;;;;;7.53;4.50;;;;;;;7.91;75.25;100461.28;3212372;87;20995;-78
2022/12/30 10:06:02;;;;;;;9.10;3.75;;;;;;;7.92;74.66;100485.02;3162903;87;21187;-77
2022/12/30 10:11:05;;;;;;;6.10;3.40;;;;;;;7.92;74.41;100482.03;3163359;87;21087;-78
2022/12/30 10:16:04;;;;;;;9.50;3.75;;;;;;;7.95;74.34;100473.02;3202695;87;20965;-78
2022/12/30 10:21:32;;;;;;;5.72;3.20;;;;;;;7.99;74.25;100485.61;3277764;83;21030;-78
2022/12/30 10:26:44;;;;;;;5.87;3.17;;;;;;;8.05;74.14;100479.70;3361788;83;21506;-78
2022/12/30 10:31:37;;;;;;;6.20;3.02;;;;;;;8.19;74.00;100483.48;3362857;83;21388;-78
2022/12/30 10:36:37;;;;;;;6.72;2.83;;;;;;;8.79;73.12;100488.71;3363948;83;20930;-78
2022/12/30 10:41:59;;;;;;;6.85;2.83;;;;;;;9.30;70.13;100498.77;3322520;82;21014;-78
2022/12/30 10:46:56;;;;;;;5.35;2.90;;;;;;;9.09;71.19;100507.91;3342780;83;21106;-78
2022/12/30 10:51:49;;;;;;;3.53;2.40;;;;;;;8.92;71.71;100504.09;3254714;86;21015;-78
2022/12/30 10:56:40;;;;;;;5.25;2.90;;;;;;;8.85;71.76;100515.18;3237218;86;21004;-75
2022/12/30 11:01:35;;;;;;;6.17;2.85;;;;;;;8.88;71.68;100512.66;3246230;86;20995;-75
2022/12/30 11:06:36;;;;;;;6.85;2.52;;;;;;;8.84;71.73;100500.48;3253261;86;21526;-76
2022/12/30 11:14:42;;;;;;;7.47;3.08;;;;;;;9.77;70.44;100513.03;3234962;86;21293;-75
2022/12/30 11:16:30;;;;;;;6.47;3.30;;;;;;;11.04;69.28;100508.81;3246807;86;20992;-76
2022/12/30 11:21:34;;;;;;;5.78;3.27;;;;;;;11.36;67.92;100520.02;3233923;86;21088;-76
2022/12/30 11:26:29;;;;;;;7.67;3.02;;;;;;;11.01;68.44;100530.88;3288851;83;21077;-76
2022/12/30 11:31:21;;;;;;;6.40;3.47;;;;;;;11.05;67.39;100543.09;3354368;82;22105;-75
2022/12/30 11:36:32;;;;;;;5.20;2.70;;;;;;;11.11;67.08;100534.48;3312134;83;21474;-75
2022/12/30 11:41:29;;;;;;;5.00;3.12;;;;;;;11.04;65.93;100541.77;3330178;83;20965;-75
2022/12/30 11:46:23;;;;;;;4.40;2.17;;;;;;;11.17;64.83;100541.05;3280300;85;22218;-76
2022/12/30 11:51:24;;;;;;;7.10;3.45;;;;;;;10.41;66.01;100548.69;3254786;85;21467;-75
2022/12/30 11:56:23;;;;;;;7.05;2.83;;;;;;;10.53;65.78;100547.58;3293951;85;21134;-76
2022/12/30 12:01:14;;;;;;;4.72;2.58;;;;;;;10.32;65.81;100556.36;3255742;84;20972;-75
2022/12/30 12:06:10;;;;;;;5.15;2.33;;;;;;;10.38;65.85;100569.03;3239385;84;21583;-75
2022/12/30 12:11:15;;;;;;;4.53;2.02;;;;;;;10.41;65.68;100563.89;3249889;85;20999;-75
2022/12/30 12:16:15;;;;;;;4.25;2.42;;;;;;;10.11;65.52;100560.34;3293311;85;20976;-75
2022/12/30 12:21:29;;;;;;;5.10;2.15;;;;;;;9.69;65.93;100574.32;3286184;83;21629;-76
2022/12/30 12:26:26;;;;;;;4.67;2.02;;;;;;;9.32;65.26;100570.62;3272620;85;21016;-76
2022/12/30 12:32:14;;;;;;;5.47;2.13;;;;;;;9.00;65.77;100573.85;3286802;85;21006;-75
2022/12/30 12:37:46;;;;;;;10.13;2.67;;;;;;;8.83;66.64;100579.09;3300495;85;21727;-75
2022/12/30 12:43:04;;;;;;;12.28;4.15;;;;;;;8.62;66.91;100575.59;3288495;85;21513;-75
2022/12/30 12:48:06;;;;;;;5.40;2.17;;;;;;;8.49;67.23;100579.63;3309894;83;21524;-75
2022/12/30 12:53:50;;;;;;;10.13;2.62;;;;;;;8.37;67.23;100582.36;3248168;85;21031;-75
2022/12/30 12:59:10;;;;;;;7.55;2.30;;;;;;;8.28;67.17;100583.84;3292608;85;21023;-74
2022/12/30 13:04:27;;;;;;;5.25;2.17;;;;;;;8.15;67.43;100588.72;3290024;85;20946;-75
2022/12/30 13:09:36;;;;;;;6.92;2.62;;;;;;;8.09;67.52;100590.30;3289026;85;20983;-75
2022/12/30 13:14:44;;;;;;;5.35;2.05;;;;;;;8.03;67.53;100593.62;3300355;85;20956;-74
2022/12/30 13:19:37;;;;;;;4.65;2.65;;;;;;;7.96;67.71;100596.89;3208186;87;21016;-75
2022/12/30 13:24:34;;;;;;;5.97;2.12;;;;;;;7.91;67.89;100600.64;3189797;86;21040;-75
2022/12/30 13:29:30;;;;;;;7.03;1.93;;;;;;;7.81;68.31;100596.92;3197163;87;21063;-75
2022/12/30 13:34:43;;;;;;;3.77;1.73;;;;;;;7.77;68.60;100598.98;3194711;87;20976;-75
2022/12/30 13:40:01;;;;;;;8.08;2.70;;;;;;;7.69;68.78;100594.42;3223226;87;22271;-75
2022/12/30 13:44:55;;;;;;;6.78;2.85;;;;;;;7.62;68.95;100586.52;3223973;86;21038;-75
2022/12/30 13:49:46;;;;;;;6.83;3.50;;;;;;;7.49;69.07;100580.96;3236626;86;20919;-75
2022/12/30 13:54:37;;;;;;;5.45;2.80;;;;;;;7.51;69.21;100603.86;3267205;83;21148;-75
2022/12/30 13:59:35;;;;;;;10.75;4.00;;;;;;;7.43;69.34;100602.37;3299521;83;21050;-74
2022/12/30 14:04:37;;;;;;;8.63;3.40;;;;;;;7.30;69.43;100601.16;3351782;83;21052;-75
2022/12/30 14:09:31;;;;;;;12.85;2.67;;;;;;;7.27;69.39;100627.34;3312797;83;20947;-75
2022/12/30 14:14:52;;;;;;;9.28;2.90;;;;;;;7.17;69.51;100637.42;3289110;83;21098;-74
2022/12/30 14:19:38;;;;;;;5.85;2.30;;;;;;;7.10;69.49;100641.95;3333981;83;21163;-75
2022/12/30 14:24:44;;;;;;;7.58;3.05;;;;;;;6.99;69.50;100643.31;3345790;83;20965;-76
2022/12/30 14:29:36;;;;;;;7.97;2.75;;;;;;;6.91;69.64;100648.69;3352766;83;22162;-76
2022/12/30 14:34:40;;;;;;;6.28;2.95;;;;;;;6.79;69.66;100650.03;3302886;84;21047;-75
2022/12/30 14:39:33;;;;;;;9.13;3.42;;;;;;;6.67;69.77;100657.40;3331936;83;20986;-75
2022/12/30 14:44:27;;;;;;;5.55;3.30;;;;;;;6.56;69.80;100669.11;3323791;83;21438;-75
2022/12/30 14:49:54;;;;;;;4.30;2.87;;;;;;;6.42;69.91;100663.09;3321921;83;21032;-75
2022/12/30 14:55:11;;;;;;;8.68;3.65;;;;;;;6.29;70.09;100673.83;3300732;83;21005;-76
2022/12/30 15:00:17;;;;;;;7.67;3.20;;;;;;;6.09;70.34;100677.89;3228266;86;21251;-76
2022/12/30 15:05:16;;;;;;;8.00;2.87;;;;;;;5.91;70.61;100681.10;3231386;86;21094;-75
2022/12/30 15:10:22;;;;;;;10.58;3.40;;;;;;;5.70;70.98;100674.34;3249415;86;21018;-78
2022/12/30 15:15:24;;;;;;;16.35;3.33;;;;;;;5.52;71.10;100682.70;3248320;86;21110;-77
2022/12/30 15:20:31;;;;;;;5.53;3.08;;;;;;;5.31;71.28;100683.68;3224283;86;21039;-77
2022/12/30 15:25:24;;;;;;;9.15;3.45;;;;;;;5.12;71.44;100696.69;3238773;86;21522;-77
2022/12/30 15:30:17;;;;;;;5.47;3.15;;;;;;;4.90;71.28;100694.56;3155047;88;21013;-77
2022/12/30 15:35:16;;;;;;;7.78;3.85;;;;;;;4.69;71.42;100695.86;3311549;83;22111;-77
2022/12/30 15:40:15;;;;;;;6.33;4.92;;;;;;;4.46;71.25;100693.63;3349308;83;21026;-78
2022/12/30 15:45:36;;;;;;;9.70;3.65;;;;;;;4.33;71.85;100698.69;3310969;84;21526;-77
2022/12/30 15:50:37;;;;;;;11.75;3.58;;;;;;;4.20;72.02;100701.16;3306731;85;21000;-77
2022/12/30 15:55:37;;;;;;;7.37;3.37;;;;;;;4.04;72.28;100697.42;3228789;85;21502;-78
2022/12/30 16:00:28;;;;;;;9.53;4.35;;;;;;;3.86;72.42;100689.80;3284364;85;21604;-76
2022/12/30 16:05:31;;;;;;;9.48;5.08;;;;;;;3.71;72.69;100692.59;3233571;85;20980;-76
2022/12/30 16:10:29;;;;;;;10.40;5.35;;;;;;;3.59;72.86;100687.77;3280005;85;21055;-76
2022/12/30 16:15:42;;;;;;;16.15;6.75;;;;;;;3.46;73.08;100697.03;3305979;85;20999;-76
2022/12/30 16:20:41;;;;;;;13.10;6.30;;;;;;;3.32;72.86;100715.67;3291248;85;21095;-74
2022/12/30 16:25:39;;;;;;;14.10;6.30;;;;;;;3.21;73.41;100706.59;3301496;84;21518;-74
2022/12/30 16:30:36;;;;;;;13.53;6.70;;;;;;;3.09;73.41;100717.59;3289136;85;21022;-74
2022/12/30 16:35:27;;;;;;;;;;;;;;;2.98;73.72;100730.80;3275406;85;21008;-74
2022/12/30 16:40:23;;;;;;;14.33;7.65;;;;;;;2.88;73.66;100725.14;3303294;85;24890;-74
2022/12/30 16:45:22;;;;;;;16.82;7.53;;;;;;;2.74;73.73;100737.34;3263624;84;21019;-74
2022/12/30 16:50:13;;;;;;;15.03;9.65;;;;;;;2.63;73.83;100729.98;3270432;84;21561;-74
2022/12/30 16:55:06;;;;;;;18.70;10.28;;;;;;;2.54;74.08;100737.61;3297478;84;20951;-74
2022/12/30 16:59:57;;;;;;;15.72;9.55;;;;;;;2.46;74.38;100737.24;3265419;84;21011;-74
2022/12/30 17:04:49;;;;;;;18.95;9.83;;;;;;;2.37;74.40;100751.77;3297676;84;20964;-74
2022/12/30 17:14:50;;;;;;;10.80;7.28;;;;;;;2.20;74.57;100761.20;3310145;84;21224;-74
2022/12/30 17:19:41;;;;;;;12.63;6.60;;;;;;;2.11;74.77;100762.01;3276782;84;21647;-74
2022/12/30 17:24:33;;;;;;;17.10;9.40;;;;;;;2.01;74.81;100761.91;3321633;84;22056;-74
2022/12/30 17:29:24;;;;;;;13.38;7.85;;;;;;;1.90;74.95;100770.33;3241489;84;21045;-73
2022/12/30 17:34:16;;;;;;;12.28;8.03;;;;;;;1.83;74.80;100775.94;3257628;84;20980;-74
2022/12/30 17:39:08;;;;;;;10.93;7.83;;;;;;;1.76;75.09;100777.69;3332147;84;21105;-74
2022/12/30 17:44:00;;;;;;;13.18;8.73;;;;;;;1.71;75.39;100774.00;3298266;84;21350;-74
2022/12/30 17:48:52;;;;;;;15.28;7.50;;;;;;;1.62;75.16;100763.25;3313993;82;21015;-74
2022/12/30 17:53:43;;;;;;;14.47;9.45;;;;;;;1.51;75.34;100755.86;3287018;83;21450;-74
2022/12/30 17:58:34;;;;;;;15.60;9.63;;;;;;;1.49;75.57;100765.16;3269798;83;21469;-74
2022/12/30 18:03:26;;;;;;;18.15;11.88;;;;;;;1.44;75.69;100771.70;3289951;83;21013;-74
2022/12/30 18:08:23;;;;;;;21.60;10.38;;;;;;;1.36;75.65;100765.30;3336292;83;21150;-74
2022/12/30 18:13:13;;;;;;;22.50;13.62;;;;;;;1.35;75.86;100768.64;3313196;83;20983;-75
2022/12/30 18:18:05;;;;;;;18.12;10.63;;;;;;;1.27;75.71;100763.48;3304796;83;21000;-74
2022/12/30 18:22:56;;;;;;;18.87;11.70;;;;;;;1.22;75.95;100763.66;3303312;83;21573;-74
2022/12/30 18:27:47;;;;;;;24.98;11.70;;;;;;;1.21;76.24;100764.44;3330205;83;21461;-74
2022/12/30 18:32:38;;;;;;;19.95;11.65;;;;;;;1.18;76.37;100760.05;3286802;83;21251;-74
2022/12/30 18:37:29;;;;;;;22.75;12.93;;;;;;;1.10;76.06;100751.91;3334339;82;21128;-74
2022/12/30 18:42:20;;;;;;;22.40;12.70;;;;;;;1.01;75.93;100756.94;3314104;83;20988;-74
2022/12/30 18:47:11;;;;;;;23.97;12.20;;;;;;;0.96;76.39;100761.78;3349305;83;21824;-74
2022/12/30 18:52:02;;;;;;;26.50;13.85;;;;;;;0.93;76.41;100758.67;3319339;83;21813;-74
2022/12/30 18:56:53;;;;;;;24.23;14.07;;;;;;;0.87;76.64;100765.11;3342510;83;21015;-74
2022/12/30 19:01:45;;;;;;;25.92;15.98;;;;;;;0.87;76.82;100765.11;3335229;83;21411;-74
2022/12/30 19:06:38;;;;;;;26.02;14.73;;;;;;;0.82;76.96;100761.41;3355490;82;20957;-74
2022/12/30 19:11:29;;;;;;;29.40;17.50;;;;;;;0.76;76.84;100752.58;3339851;83;21517;-74
2022/12/30 19:16:25;;;;;;;30.65;20.23;;;;;;;0.70;76.82;100749.69;3369441;83;21540;-74
2022/12/30 19:21:21;;;;;;;28.07;16.82;;;;;;;0.68;77.22;100742.33;3323845;83;21030;-74
2022/12/30 19:26:13;;;;;;;31.17;17.87;;;;;;;0.63;77.30;100739.89;3316807;83;21004;-74
2022/12/30 19:31:18;;;;;;;33.73;19.02;;;;;;;0.60;77.35;100746.52;3312121;83;21058;-74
2022/12/30 19:36:14;;;;;;;29.02;18.77;;;;;;;0.59;77.51;100744.36;3342837;83;21007;-74
2022/12/30 19:41:05;;;;;;;36.33;22.67;;;;;;;0.58;77.52;100740.02;3332479;83;21217;-74
2022/12/30 19:46:02;;;;;;;40.17;22.60;;;;;;;0.55;77.89;100745.86;3298141;85;21493;-74
2022/12/30 19:50:59;;;;;;;39.67;25.20;;;;;;;0.53;77.73;100750.39;3288034;85;21043;-74
2022/12/30 19:55:50;;;;;;;35.65;21.70;;;;;;;0.54;78.25;100748.33;3290423;85;21264;-74
2022/12/30 20:00:41;;;;;;;37.63;24.77;;;;;;;0.51;78.24;100739.19;3257995;85;21493;-74
2022/12/30 20:05:34;;;;;;;39.63;22.73;;;;;;;0.50;78.46;100738.69;3289483;85;21831;-74
2022/12/30 20:10:26;;;;;;;44.15;25.17;;;;;;;0.46;78.26;100749.14;3282214;85;21525;-74
2022/12/30 20:15:19;;;;;;;40.70;25.80;;;;;;;0.47;78.53;100770.52;3257696;85;20987;-74
2022/12/30 20:20:10;;;;;;;44.42;25.32;;;;;;;0.48;79.00;100767.14;3269445;85;21016;-74
2022/12/30 20:25:01;;;;;;;45.40;26.87;;;;;;;0.49;79.10;100767.64;3310797;85;21684;-74
2022/12/30 20:29:52;;;;;;;41.23;24.87;;;;;;;0.49;79.33;100770.20;3253771;85;21742;-74
2022/12/30 20:34:43;;;;;;;36.90;23.85;;;;;;;0.47;79.17;100773.06;3282836;85;21064;-74
2022/12/30 20:39:34;;;;;;;49.73;24.55;;;;;;;0.47;79.51;100775.22;3238363;85;22068;-74
2022/12/30 20:44:29;;;;;;;34.60;22.52;;;;;;;0.48;79.67;100783.77;3281221;85;21011;-74
2022/12/30 20:49:20;;;;;;;37.15;23.25;;;;;;;0.49;79.96;100782.98;3320252;83;20944;-74
2022/12/30 20:54:15;;;;;;;34.25;22.42;;;;;;;0.48;79.79;100779.94;3321743;83;21700;-75
2022/12/30 20:59:07;;;;;;;35.50;21.55;;;;;;;0.47;79.93;100773.06;3320362;83;21000;-74
2022/12/30 21:04:05;;;;;;;34.83;22.15;;;;;;;0.44;79.95;100765.20;3347906;83;20956;-74
2022/12/30 21:08:57;;;;;;;39.67;23.90;;;;;;;0.40;79.88;100763.27;3327741;83;20972;-74
2022/12/30 21:13:50;;;;;;;37.15;21.33;;;;;;;0.38;79.97;100761.49;3302251;83;20964;-74
2022/12/30 21:18:42;;;;;;;34.67;20.90;;;;;;;0.36;80.19;100756.69;3326501;83;21888;-74
2022/12/30 21:23:33;;;;;;;33.15;20.72;;;;;;;0.38;80.55;100752.54;3345592;83;20971;-74
2022/12/30 21:28:24;;;;;;;33.35;21.02;;;;;;;0.35;80.28;100747.23;3327559;83;20996;-74
2022/12/30 21:33:15;;;;;;;33.00;19.87;;;;;;;0.32;80.59;100744.89;3316365;83;21005;-73
2022/12/30 22:03:57;;;;;;;34.67;19.27;;;;;;;0.38;81.73;100712.89;3247686;85;20988;-74
2022/12/30 22:08:48;;;;;;;28.65;20.25;;;;;;;0.42;81.89;100722.03;3232195;85;20983;-74
2022/12/30 22:13:41;;;;;;;29.65;18.75;;;;;;;0.43;81.96;100708.43;3255951;85;21094;-74
2022/12/30 22:18:32;;;;;;;41.92;22.98;;;;;;;0.46;81.95;100715.88;3259532;85;21548;-74
2022/12/30 22:23:23;;;;;;;29.50;20.23;;;;;;;0.53;83.25;100712.01;3209189;85;20979;-74
2022/12/30 22:28:18;;;;;;;41.05;25.70;;;;;;;0.62;82.63;100697.58;3288419;85;21042;-74
2022/12/30 22:33:11;;;;;;;34.45;22.58;;;;;;;0.65;83.24;100687.12;3258049;85;22050;-74
2022/12/30 22:38:03;;;;;;;42.45;25.57;;;;;;;0.72;83.07;100672.59;3295330;85;21006;-74
2022/12/30 22:42:56;;;;;;;38.78;25.05;;;;;;;0.90;84.84;100658.65;3279603;85;35908;-74
2022/12/30 22:47:51;;;;;;;35.20;23.55;;;;;;;1.00;84.08;100656.17;3248955;85;20974;-74
2022/12/30 22:52:42;;;;;;;37.90;26.55;;;;;;;1.04;83.76;100653.01;3273179;84;20974;-74
2022/12/30 22:57:33;;;;;;;42.13;27.05;;;;;;;1.07;83.94;100646.78;3270393;84;21069;-74
2022/12/30 23:02:24;;;;;;;44.35;27.90;;;;;;;1.06;84.17;100651.81;3297152;84;21022;-74
2022/12/30 23:07:15;;;;;;;46.13;28.10;;;;;;;1.09;84.16;100642.62;3273980;84;21043;-74
2022/12/30 23:12:08;;;;;;;46.48;28.47;;;;;;;1.17;84.46;100625.09;3246241;84;21022;-74
2022/12/30 23:16:59;;;;;;;45.30;28.90;;;;;;;1.21;84.53;100616.77;3291407;85;21431;-74
2022/12/30 23:21:50;;;;;;;34.80;21.65;;;;;;;1.25;84.55;100605.00;3265062;83;22007;-74
2022/12/30 23:26:41;;;;;;;45.60;27.33;;;;;;;1.33;85.60;100603.73;3261727;83;20942;-74
2022/12/30 23:31:32;;;;;;;40.70;27.32;;;;;;;1.43;85.39;100590.61;3320524;83;21264;-74
2022/12/30 23:36:23;;;;;;;42.73;28.20;;;;;;;1.45;85.03;100586.44;3325542;84;21509;-74
2022/12/30 23:41:16;;;;;;;41.92;26.00;;;;;;;1.48;85.54;100573.76;3252171;84;21519;-74
2022/12/30 23:46:12;;;;;;;38.85;26.40;;;;;;;1.56;85.67;100572.89;3264501;84;21084;-74
2022/12/30 23:51:10;;;;;;;40.60;26.33;;;;;;;1.64;85.81;100568.14;3267286;84;21473;-74
2022/12/30 23:56:09;;;;;;;42.50;25.57;;;;;;;1.74;86.43;100558.84;3299189;84;20987;-74
